Hlavní strana
METAR-TAF:

METAR-TAF

Letiště :

Andravida, Řecko

zeměpisná šířka: 37-55N, zeměpisná délka: 021-17E, výška: 10 m

Aktuální stav počasí

Zpráva byla vytvořena před 25 minutami, v 05:20 UTC
Bezvětří
Teplota -1°C
Vlhkost vzduchu 93%
Tlak 1037 hPa
Viditelnost 10 km a více
Žádná oblačnost pod 1500 m, nevyskytují se cumulonimby.

METAR: LGAD 210520Z 00000KT CAVOK M01/M02 Q1037

Čas: 07:45 (05:45 UTC)

Předpověď počasí

Zpráva byla vytvořena před 45 minutami, v 05:00 UTC
Předpověď platná od 21 v 06 UTC do 21 v 15 UTC
Severní vítr 8 kt
Viditelnost 10 km a více
Skoro jasno ve výšce 2500 ft

TAF: LGAD 210500Z 2106/2115 36008KT 9999 FEW025

Stav a předpovědi počasí z více než 4 000 letišť (zprávy METAR a TAF).

Červené a žluté tečky na mapě představují dostupné meteorologické stanice.

Když kurzor umístíte na tečku, zobrazí se název stanice.

Pak kliknutím zobrazíte stav a předpověď počasí.

Chcete-li změnit mapu, kliknutím na zelené tlačítko se znaménkem +mapu přiblížíte, kliknutím na zelené tlačítko se znaménkem – mapu oddálíte a kliknutím na zelené šipky přejdete na sousední mapy.


METAR-TAF: